Terminal Aerodrome Forecast
Issued by NWS

Home | Current Version | Previous Version | Text Only | Print | Product List | Glossary Off
Versions: 1 2 3 4 5 6 7 8 9 10 11 12 13 14 15

504
FTUS43 KGRB 201131
TAFMTW
TAF
KMTW 201131Z 2012/2112 26007KT P6SM SCT025 BKN100
     FM201400 28006KT P6SM SCT025
     FM201800 23009KT P6SM SKC
     FM202200 16005KT P6SM SKC
     FM210100 VRB03KT P6SM SCT250
      TEMPO 2108/2112 2SM BR SCT003=

USA.gov is the U.S. government's official web portal to all federal, state and local government web resources and services.